Time;durP1;ratioP1;P1;durP2;ratioP2;P2;SDS_P1;SDS_P2;PMS_P1;PMS_P2;Temp;Humidity;BMP_temperature;BMP_pressure;BME280_temperature;BME280_humidity;BME280_pressure;Samples;Min_cycle;Max_cycle;Signal;HPM_P1;HPM_P2
2021/03/19 00:01:17;;;;;;;6.03;3.47;;;4.90;99.90;;;;;;5071259;28;20017;-84
2021/03/19 00:03:42;;;;;;;5.00;2.85;;;4.80;99.90;;;;;;5073251;28;20099;-85
2021/03/19 00:06:08;;;;;;;7.30;3.38;;;4.80;99.90;;;;;;5064787;28;20024;-85
2021/03/19 00:08:33;;;;;;;8.80;3.58;;;4.70;99.90;;;;;;5074798;28;20027;-85
2021/03/19 00:10:59;;;;;;;7.28;3.45;;;4.60;99.90;;;;;;5072933;28;20045;-85
2021/03/19 00:13:25;;;;;;;6.07;2.97;;;4.50;99.90;;;;;;5076591;28;20020;-85
2021/03/19 00:15:50;;;;;;;5.78;2.70;;;4.50;99.90;;;;;;5090090;28;20028;-85
2021/03/19 00:18:16;;;;;;;5.70;2.80;;;4.40;99.90;;;;;;5072217;28;20020;-84
2021/03/19 00:20:44;;;;;;;5.78;3.45;;;4.40;99.90;;;;;;5091863;28;20039;-85
2021/03/19 00:23:10;;;;;;;6.18;3.60;;;4.40;99.90;;;;;;5070949;28;20062;-85
2021/03/19 00:25:37;;;;;;;6.80;3.10;;;4.30;99.90;;;;;;5074832;28;20048;-84
2021/03/19 00:28:05;;;;;;;7.90;3.65;;;4.30;99.90;;;;;;5073245;28;20074;-85
2021/03/19 00:30:31;;;;;;;8.52;3.90;;;4.20;99.90;;;;;;5076034;28;20111;-86
2021/03/19 00:32:57;;;;;;;5.18;2.92;;;4.20;99.90;;;;;;5094412;28;20099;-85
2021/03/19 00:35:23;;;;;;;4.75;2.83;;;4.10;99.90;;;;;;5088557;28;20116;-85
2021/03/19 00:37:49;;;;;;;5.15;3.28;;;4.10;99.90;;;;;;5091698;28;20114;-85
2021/03/19 00:40:15;;;;;;;7.95;3.25;;;4.10;99.90;;;;;;5090035;28;20036;-84
2021/03/19 00:42:42;;;;;;;4.78;3.38;;;4.10;99.90;;;;;;5075005;28;20020;-85
2021/03/19 00:45:10;;;;;;;7.18;3.97;;;4.10;99.90;;;;;;5091357;28;20459;-85
2021/03/19 00:47:36;;;;;;;8.70;3.50;;;4.00;99.90;;;;;;5072763;28;20073;-85
2021/03/19 00:50:05;;;;;;;5.32;3.58;;;4.00;99.90;;;;;;5069826;28;20494;-85
2021/03/19 00:52:30;;;;;;;6.53;3.65;;;4.00;99.90;;;;;;5069721;28;20030;-85
2021/03/19 00:54:56;;;;;;;5.40;3.78;;;3.90;99.90;;;;;;5074387;28;20099;-85
2021/03/19 00:57:22;;;;;;;6.13;3.78;;;3.90;99.90;;;;;;5072407;28;20009;-85
2021/03/19 00:59:47;;;;;;;5.68;3.92;;;3.80;99.90;;;;;;5076034;28;20095;-85
2021/03/19 01:02:13;;;;;;;8.32;3.53;;;3.80;99.90;;;;;;5091498;28;20463;-85
2021/03/19 01:04:38;;;;;;;6.45;3.60;;;3.70;99.90;;;;;;5071476;28;20028;-85
2021/03/19 01:07:04;;;;;;;5.95;3.22;;;3.70;99.90;;;;;;5075433;28;20018;-85
2021/03/19 01:09:30;;;;;;;7.25;4.35;;;3.70;99.90;;;;;;5071857;28;20086;-85
2021/03/19 01:11:55;;;;;;;4.53;3.22;;;3.70;99.90;;;;;;5074005;28;20023;-85
2021/03/19 01:14:21;;;;;;;6.40;3.85;;;3.70;99.90;;;;;;5072650;28;20067;-85
2021/03/19 01:16:46;;;;;;;4.35;3.20;;;3.70;99.90;;;;;;5072147;28;20514;-85
2021/03/19 01:19:12;;;;;;;4.13;2.55;;;3.70;99.90;;;;;;5092505;28;20024;-85
2021/03/19 01:21:38;;;;;;;5.35;2.92;;;3.70;99.90;;;;;;5093503;28;20036;-85
2021/03/19 01:24:04;;;;;;;5.57;3.17;;;3.70;99.90;;;;;;5090632;28;20024;-85
2021/03/19 01:26:30;;;;;;;5.63;3.40;;;3.70;99.90;;;;;;5093347;28;20104;-85
2021/03/19 01:28:55;;;;;;;5.03;2.60;;;3.70;99.90;;;;;;5073579;28;20044;-85
2021/03/19 01:31:21;;;;;;;4.70;2.80;;;3.70;99.90;;;;;;5074544;28;20058;-85
2021/03/19 01:33:46;;;;;;;7.68;3.20;;;3.60;99.90;;;;;;5071967;28;20076;-85
2021/03/19 01:36:12;;;;;;;7.47;3.90;;;3.50;99.90;;;;;;5075752;28;20044;-85
2021/03/19 01:38:39;;;;;;;3.95;3.10;;;3.50;99.90;;;;;;5072370;28;20082;-85
2021/03/19 01:41:07;;;;;;;5.00;3.92;;;3.50;99.90;;;;;;5074563;28;20052;-85
2021/03/19 01:43:50;;;;;;;6.20;4.13;;;3.40;99.90;;;;;;5072800;28;20028;-85
2021/03/19 01:46:53;;;;;;;5.68;4.03;;;3.40;99.90;;;;;;5101595;28;20043;-85
2021/03/19 01:49:57;;;;;;;7.03;4.05;;;3.40;99.90;;;;;;5088726;28;20016;-85
2021/03/19 01:53:00;;;;;;;4.32;3.40;;;3.40;99.90;;;;;;5092441;28;20012;-85
2021/03/19 01:56:03;;;;;;;5.82;3.65;;;3.30;99.90;;;;;;5091982;28;20020;-85
2021/03/19 01:59:20;;;;;;;6.57;4.40;;;3.30;99.90;;;;;;5090861;28;20027;-85
2021/03/19 02:02:23;;;;;;;6.30;4.68;;;3.30;99.90;;;;;;5045583;28;20028;-84
2021/03/19 02:05:26;;;;;;;6.25;4.43;;;3.20;99.90;;;;;;5090573;28;20039;-85
2021/03/19 02:08:29;;;;;;;7.32;4.68;;;3.20;99.90;;;;;;5090482;28;20012;-84
2021/03/19 02:11:32;;;;;;;6.80;5.40;;;3.10;99.90;;;;;;5090203;28;20423;-85
2021/03/19 02:14:35;;;;;;;7.70;5.25;;;3.10;99.90;;;;;;5087291;28;20062;-85
2021/03/19 02:17:39;;;;;;;10.60;6.05;;;3.10;99.90;;;;;;5088693;28;20020;-85
2021/03/19 02:20:42;;;;;;;11.13;6.35;;;3.00;99.90;;;;;;5089954;28;20020;-85
2021/03/19 02:23:45;;;;;;;9.43;6.95;;;2.90;99.90;;;;;;5088364;28;20016;-85
2021/03/19 02:26:48;;;;;;;7.82;5.45;;;2.90;99.90;;;;;;5090047;28;20028;-86
2021/03/19 02:29:51;;;;;;;9.60;6.05;;;2.80;99.90;;;;;;5069521;28;20510;-86
2021/03/19 02:32:26;;;;;;;6.40;4.40;;;2.90;99.90;;;;;;5088127;28;20020;-85
2021/03/19 02:35:07;;;;;;;8.98;4.40;;;2.80;99.90;;;;;;5070230;28;20069;-85
2021/03/19 02:37:36;;;;;;;10.75;5.70;;;2.80;99.90;;;;;;5072368;28;20109;-85
2021/03/19 02:40:14;;;;;;;8.23;5.20;;;2.80;99.90;;;;;;5073007;28;20019;-84
2021/03/19 02:42:40;;;;;;;8.20;5.00;;;2.80;99.90;;;;;;5072853;28;20276;-85
2021/03/19 02:45:09;;;;;;;5.93;4.60;;;2.80;99.90;;;;;;5071332;28;20487;-85
2021/03/19 02:47:34;;;;;;;7.07;4.90;;;2.80;99.90;;;;;;5073786;28;20035;-84
2021/03/19 02:50:00;;;;;;;9.25;5.40;;;2.70;99.90;;;;;;5066060;28;20025;-84
2021/03/19 02:52:33;;;;;;;6.85;4.95;;;2.70;99.90;;;;;;5089014;28;20066;-84
2021/03/19 02:54:59;;;;;;;8.48;4.97;;;2.70;99.90;;;;;;5088737;28;20375;-84
2021/03/19 02:57:25;;;;;;;7.95;4.82;;;2.70;99.90;;;;;;5075836;28;20016;-84
2021/03/19 02:59:50;;;;;;;10.35;6.07;;;2.70;99.90;;;;;;5071168;28;20029;-84
2021/03/19 03:02:16;;;;;;;10.93;6.28;;;2.60;99.90;;;;;;5070936;28;20028;-85
2021/03/19 03:04:41;;;;;;;9.68;5.35;;;2.60;99.90;;;;;;5076446;28;20353;-85
2021/03/19 03:07:25;;;;;;;7.00;5.07;;;2.60;99.90;;;;;;5077044;28;20502;-84
2021/03/19 03:09:51;;;;;;;6.22;4.50;;;2.60;99.90;;;;;;5074845;28;20154;-85
2021/03/19 03:12:18;;;;;;;6.47;4.80;;;2.50;99.90;;;;;;5072222;28;20111;-84
2021/03/19 03:14:43;;;;;;;6.97;5.03;;;2.50;99.90;;;;;;5077366;28;20028;-84
2021/03/19 03:17:10;;;;;;;7.65;5.60;;;2.50;99.90;;;;;;5077501;28;20058;-84
2021/03/19 03:19:36;;;;;;;9.68;6.55;;;2.50;99.90;;;;;;5075936;28;20108;-84
2021/03/19 03:22:02;;;;;;;7.45;5.47;;;2.50;99.90;;;;;;5077115;28;20442;-84
2021/03/19 03:24:29;;;;;;;7.63;5.47;;;2.50;99.90;;;;;;5077372;28;20099;-85
2021/03/19 03:26:55;;;;;;;9.45;6.47;;;2.50;99.90;;;;;;5075968;28;20023;-84
2021/03/19 03:29:22;;;;;;;9.13;6.50;;;2.50;99.90;;;;;;5076484;28;20025;-84
2021/03/19 03:31:48;;;;;;;12.05;6.85;;;2.50;99.90;;;;;;5074197;28;20024;-84
2021/03/19 03:34:14;;;;;;;7.95;5.82;;;2.40;99.90;;;;;;5077565;28;20050;-84
2021/03/19 03:36:40;;;;;;;7.15;5.75;;;2.40;99.90;;;;;;5075948;28;20040;-84
2021/03/19 03:39:10;;;;;;;9.95;5.50;;;2.40;99.90;;;;;;5109730;28;20027;-83
2021/03/19 03:41:36;;;;;;;8.73;5.93;;;2.40;99.90;;;;;;5111068;28;20111;-84
2021/03/19 03:44:03;;;;;;;9.13;6.35;;;2.40;99.90;;;;;;5076634;28;20089;-83
2021/03/19 03:46:28;;;;;;;9.18;5.90;;;2.30;99.90;;;;;;5110846;28;20024;-83
2021/03/19 03:48:56;;;;;;;10.50;6.40;;;2.30;99.90;;;;;;5075407;28;20034;-83
2021/03/19 03:51:23;;;;;;;10.27;6.32;;;2.30;99.90;;;;;;5076723;28;20024;-82
2021/03/19 03:53:49;;;;;;;9.05;5.78;;;2.30;99.90;;;;;;5108054;28;20383;-83
2021/03/19 03:56:14;;;;;;;9.60;6.15;;;2.30;99.90;;;;;;5074979;28;20476;-83
2021/03/19 03:58:41;;;;;;;14.45;6.75;;;2.20;99.90;;;;;;5075685;28;20043;-83
2021/03/19 04:01:07;;;;;;;9.65;6.53;;;2.20;99.90;;;;;;5076527;28;20017;-83
2021/03/19 04:03:33;;;;;;;10.45;7.32;;;2.20;99.90;;;;;;5074480;28;20027;-82
2021/03/19 04:05:59;;;;;;;11.48;6.97;;;2.20;99.90;;;;;;5094798;28;20107;-83
2021/03/19 04:08:27;;;;;;;11.93;6.63;;;2.20;99.90;;;;;;5076419;28;20067;-83
2021/03/19 04:10:54;;;;;;;10.45;6.00;;;2.10;99.90;;;;;;5074278;28;20431;-83
2021/03/19 04:13:21;;;;;;;8.02;5.40;;;2.10;99.90;;;;;;5073923;28;20107;-83
2021/03/19 04:15:50;;;;;;;7.55;5.30;;;2.10;99.90;;;;;;5073247;28;20012;-83
2021/03/19 04:18:17;;;;;;;10.25;5.75;;;2.10;99.90;;;;;;5074676;28;20051;-83
2021/03/19 04:20:44;;;;;;;8.75;5.53;;;2.10;99.90;;;;;;5076558;28;20024;-82
2021/03/19 04:23:11;;;;;;;9.98;5.47;;;2.10;99.90;;;;;;5070761;28;20045;-82
2021/03/19 04:25:36;;;;;;;8.85;5.95;;;2.10;99.90;;;;;;5074566;28;20032;-82
2021/03/19 04:28:06;;;;;;;9.43;5.97;;;2.00;99.90;;;;;;5094427;28;20073;-82
2021/03/19 04:30:37;;;;;;;9.93;6.03;;;2.00;99.90;;;;;;5073829;28;20020;-83
2021/03/19 04:33:03;;;;;;;7.53;5.65;;;2.00;99.90;;;;;;5075178;28;20033;-83
2021/03/19 04:35:30;;;;;;;9.07;5.55;;;2.00;99.90;;;;;;5075932;28;20154;-82
2021/03/19 04:37:59;;;;;;;10.25;6.03;;;2.00;99.90;;;;;;5092910;28;20023;-82
2021/03/19 04:40:26;;;;;;;8.45;6.30;;;1.90;99.90;;;;;;5070509;28;20023;-83
2021/03/19 04:42:53;;;;;;;12.20;7.25;;;1.90;99.90;;;;;;5091636;28;20446;-83
2021/03/19 04:45:20;;;;;;;8.60;5.97;;;1.90;99.90;;;;;;5074783;28;20502;-83
2021/03/19 04:47:47;;;;;;;13.05;7.45;;;1.90;99.90;;;;;;5075204;28;20034;-81
2021/03/19 04:50:14;;;;;;;11.25;7.18;;;1.90;99.90;;;;;;5073685;28;20016;-82
2021/03/19 04:52:39;;;;;;;8.95;6.70;;;1.90;99.90;;;;;;5075452;28;20463;-82
2021/03/19 04:55:06;;;;;;;13.65;7.20;;;1.90;99.90;;;;;;5092640;28;20480;-84
2021/03/19 04:57:32;;;;;;;10.15;5.80;;;1.80;99.90;;;;;;5088666;28;20017;-83
2021/03/19 04:59:58;;;;;;;9.48;6.10;;;1.80;99.90;;;;;;5074194;28;20012;-83
2021/03/19 05:02:32;;;;;;;7.93;5.55;;;1.80;99.90;;;;;;5091444;28;20020;-83
2021/03/19 05:04:58;;;;;;;9.02;6.78;;;1.80;99.90;;;;;;5074099;28;20020;-83
2021/03/19 05:07:23;;;;;;;9.38;6.50;;;1.80;99.90;;;;;;5074689;28;20016;-83
2021/03/19 05:09:49;;;;;;;13.65;6.18;;;1.80;99.90;;;;;;5072383;28;20047;-83
2021/03/19 05:12:14;;;;;;;10.18;6.60;;;1.70;99.90;;;;;;5071998;28;20017;-83
2021/03/19 05:14:40;;;;;;;10.40;6.25;;;1.70;99.90;;;;;;5092289;28;20036;-83
2021/03/19 05:17:05;;;;;;;10.52;5.40;;;1.70;99.90;;;;;;5072447;28;20023;-83
2021/03/19 05:19:31;;;;;;;12.70;7.40;;;1.70;99.90;;;;;;5072872;28;20020;-83
2021/03/19 05:21:58;;;;;;;14.68;7.75;;;1.60;99.90;;;;;;5072170;28;20533;-83
2021/03/19 05:24:23;;;;;;;10.38;6.13;;;1.60;99.90;;;;;;5074993;28;20020;-83
2021/03/19 05:26:49;;;;;;;12.93;6.47;;;1.60;99.90;;;;;;5092708;28;20024;-83
2021/03/19 05:29:15;;;;;;;11.40;6.10;;;1.60;99.90;;;;;;5075308;28;20077;-83
2021/03/19 05:31:41;;;;;;;10.40;5.47;;;1.60;99.90;;;;;;5071066;28;20400;-83
2021/03/19 05:34:06;;;;;;;9.82;6.00;;;1.60;99.90;;;;;;5074773;28;20059;-83
2021/03/19 05:36:34;;;;;;;9.38;5.60;;;1.60;99.90;;;;;;5093068;28;20056;-84
2021/03/19 05:39:00;;;;;;;7.88;5.18;;;1.60;99.90;;;;;;5092931;28;20069;-84
2021/03/19 05:41:28;;;;;;;9.40;5.70;;;1.60;99.90;;;;;;5074286;28;20044;-84
2021/03/19 05:43:59;;;;;;;10.35;5.72;;;1.50;99.90;;;;;;5072663;28;20021;-83
2021/03/19 05:46:40;;;;;;;10.07;5.78;;;1.50;99.90;;;;;;5074272;28;20027;-83
2021/03/19 05:49:09;;;;;;;10.38;5.82;;;1.50;99.90;;;;;;5073947;28;20024;-83
2021/03/19 05:51:41;;;;;;;10.32;5.68;;;1.50;99.90;;;;;;5072046;28;20020;-83
2021/03/19 05:54:18;;;;;;;8.13;5.60;;;1.40;99.90;;;;;;5070209;28;20031;-84
2021/03/19 05:56:45;;;;;;;11.25;5.93;;;1.50;99.90;;;;;;5070226;28;20119;-83
2021/03/19 05:59:11;;;;;;;8.60;6.13;;;1.50;99.90;;;;;;5071733;28;20107;-84
2021/03/19 06:01:37;;;;;;;8.88;5.30;;;1.50;99.90;;;;;;5068998;28;20202;-83
2021/03/19 06:04:04;;;;;;;8.75;5.15;;;1.50;99.90;;;;;;5072693;28;20025;-84
2021/03/19 06:06:50;;;;;;;8.38;5.25;;;1.50;99.90;;;;;;5068834;28;20039;-84
2021/03/19 06:09:39;;;;;;;10.73;6.40;;;1.50;99.90;;;;;;5088767;28;20024;-83
2021/03/19 06:12:06;;;;;;;10.27;6.00;;;1.50;99.90;;;;;;5073178;28;20080;-83
2021/03/19 06:14:46;;;;;;;10.13;5.65;;;1.40;99.90;;;;;;5074470;28;20020;-84
2021/03/19 06:17:24;;;;;;;;;;;1.50;99.90;;;;;;5091982;28;20020;-83
2021/03/19 06:20:11;;;;;;;9.27;5.22;;;1.40;99.90;;;;;;5068033;28;19908;-84
2021/03/19 06:22:43;;;;;;;8.85;5.30;;;1.40;99.90;;;;;;5054462;28;20024;-84
2021/03/19 06:25:17;;;;;;;9.20;4.90;;;1.40;99.90;;;;;;5054371;28;20384;-83
2021/03/19 06:27:48;;;;;;;9.70;5.50;;;1.50;99.90;;;;;;5055064;28;20392;-84
2021/03/19 06:30:22;;;;;;;9.55;5.40;;;1.50;99.90;;;;;;5055053;28;20016;-83
2021/03/19 06:33:13;;;;;;;9.75;4.90;;;1.50;99.90;;;;;;5054661;28;20025;-84
2021/03/19 06:35:42;;;;;;;8.88;5.22;;;1.60;99.90;;;;;;5071774;28;20025;-84
2021/03/19 06:38:38;;;;;;;9.70;5.57;;;1.60;99.90;;;;;;5072818;28;20017;-84
2021/03/19 06:41:24;;;;;;;7.65;4.50;;;1.60;99.90;;;;;;5054763;28;20089;-84
2021/03/19 06:43:51;;;;;;;9.13;4.43;;;1.60;99.90;;;;;;5071405;28;20028;-84
2021/03/19 06:46:24;;;;;;;8.95;4.90;;;1.60;99.90;;;;;;5072787;28;20074;-83
2021/03/19 06:48:53;;;;;;;12.02;5.55;;;1.70;99.90;;;;;;5072837;28;20031;-83
2021/03/19 06:51:28;;;;;;;6.75;4.60;;;1.70;99.90;;;;;;5071627;28;20025;-83
2021/03/19 06:53:57;;;;;;;9.05;4.80;;;1.70;99.90;;;;;;5054578;28;20021;-84
2021/03/19 06:56:23;;;;;;;9.60;4.85;;;1.80;99.90;;;;;;5054585;28;20032;-84
2021/03/19 06:58:50;;;;;;;9.45;5.95;;;1.80;99.90;;;;;;5090306;28;20023;-84
2021/03/19 07:01:37;;;;;;;11.07;4.72;;;1.80;99.90;;;;;;5095110;28;20051;-85
2021/03/19 07:04:24;;;;;;;7.65;4.28;;;1.80;99.90;;;;;;5091497;28;20475;-83
2021/03/19 07:07:17;;;;;;;8.23;5.00;;;1.90;99.90;;;;;;5100265;28;20028;-85
2021/03/19 07:10:16;;;;;;;9.05;4.82;;;1.90;99.90;;;;;;5093557;28;20509;-85
2021/03/19 07:13:06;;;;;;;9.20;5.07;;;1.90;99.90;;;;;;5074262;28;20507;-85
2021/03/19 07:15:45;;;;;;;;;;;2.00;99.90;;;;;;5091646;28;20479;-84
2021/03/19 07:18:49;;;;;;;11.02;5.78;;;2.00;99.90;;;;;;5082442;28;19946;-84
2021/03/19 07:21:51;;;;;;;12.07;6.10;;;2.00;99.90;;;;;;5096155;28;20103;-84
2021/03/19 07:24:29;;;;;;;9.43;6.07;;;2.10;99.90;;;;;;5084399;28;20031;-84
2021/03/19 07:27:19;;;;;;;10.48;5.97;;;2.10;99.90;;;;;;5085065;28;20024;-85
2021/03/19 07:30:09;;;;;;;10.57;5.97;;;2.20;99.90;;;;;;5094638;28;20034;-85
2021/03/19 07:32:40;;;;;;;8.50;4.93;;;2.20;99.90;;;;;;5093889;28;20023;-84
2021/03/19 07:35:20;;;;;;;8.85;5.40;;;2.30;99.90;;;;;;5086943;28;20012;-84
2021/03/19 07:38:05;;;;;;;8.38;4.68;;;2.30;99.90;;;;;;5088981;28;20031;-85
2021/03/19 07:40:50;;;;;;;8.75;5.15;;;2.40;99.90;;;;;;5074602;28;20412;-87
2021/03/19 07:43:34;;;;;;;13.30;6.28;;;2.50;99.90;;;;;;5075710;28;20024;-85
2021/03/19 07:46:15;;;;;;;9.50;5.65;;;2.50;99.90;;;;;;5090232;28;20439;-85
2021/03/19 07:48:43;;;;;;;11.63;6.20;;;2.60;99.90;;;;;;5091153;28;20039;-85
2021/03/19 07:51:18;;;;;;;9.15;5.18;;;2.70;99.90;;;;;;5094134;28;20028;-84
2021/03/19 07:53:52;;;;;;;10.65;6.00;;;2.70;99.90;;;;;;5095904;28;20043;-84
2021/03/19 07:56:47;;;;;;;9.32;4.80;;;2.80;99.90;;;;;;5076378;28;20526;-84
2021/03/19 07:59:44;;;;;;;9.27;5.03;;;2.90;99.90;;;;;;5048207;28;20388;-83
2021/03/19 08:02:13;;;;;;;8.85;4.75;;;2.90;99.90;;;;;;5067367;28;20074;-84
2021/03/19 08:04:50;;;;;;;9.88;5.50;;;3.00;99.90;;;;;;5076933;28;20027;-84
2021/03/19 08:07:44;;;;;;;7.47;4.70;;;3.10;99.90;;;;;;5082970;28;20024;-84
2021/03/19 08:10:33;;;;;;;6.55;4.47;;;3.20;99.90;;;;;;5104489;28;20491;-84
2021/03/19 08:13:35;;;;;;;7.30;4.38;;;3.20;99.90;;;;;;5090787;28;20031;-85
2021/03/19 08:16:05;;;;;;;9.38;4.53;;;3.30;99.90;;;;;;5103332;28;20027;-84
2021/03/19 08:18:41;;;;;;;7.65;3.65;;;3.40;99.90;;;;;;5114760;28;20028;-84
2021/03/19 08:21:22;;;;;;;8.13;4.35;;;3.40;99.90;;;;;;5114743;28;20027;-84
2021/03/19 08:23:53;;;;;;;5.47;3.22;;;3.50;99.90;;;;;;5097725;28;20073;-84
2021/03/19 08:26:27;;;;;;;6.57;3.22;;;3.60;99.90;;;;;;5114624;28;20479;-84
2021/03/19 08:29:00;;;;;;;5.28;3.78;;;3.60;99.90;;;;;;5097389;28;20023;-84
2021/03/19 08:31:28;;;;;;;7.00;3.47;;;3.70;99.90;;;;;;5115553;28;20081;-84
2021/03/19 08:34:11;;;;;;;6.70;3.58;;;3.90;99.90;;;;;;5114152;28;20015;-84
2021/03/19 08:36:50;;;;;;;6.80;3.05;;;3.90;99.90;;;;;;5097233;28;20492;-86
2021/03/19 08:39:36;;;;;;;4.38;2.90;;;4.00;99.90;;;;;;5086116;28;20020;-84
2021/03/19 08:42:06;;;;;;;5.28;3.13;;;4.10;99.90;;;;;;5095094;28;20024;-84
2021/03/19 08:44:36;;;;;;;;;;;4.20;99.90;;;;;;5076912;28;20544;-84
2021/03/19 08:47:29;;;;;;;3.00;1.73;;;4.30;99.90;;;;;;5078386;28;19915;-83
2021/03/19 08:49:57;;;;;;;3.17;1.67;;;4.40;99.90;;;;;;5093645;28;20028;-84
2021/03/19 08:52:31;;;;;;;6.65;3.40;;;4.50;99.90;;;;;;5086597;28;20475;-85
2021/03/19 08:55:15;;;;;;;3.92;1.20;;;4.60;99.90;;;;;;5105435;28;20130;-85
2021/03/19 08:57:44;;;;;;;2.55;1.10;;;4.70;99.30;;;;;;5083091;28;20054;-83
2021/03/19 09:00:20;;;;;;;2.92;1.33;;;4.80;97.00;;;;;;5103852;28;20020;-85
2021/03/19 09:02:51;;;;;;;3.03;1.00;;;4.90;97.10;;;;;;5083273;28;20015;-84
2021/03/19 09:05:25;;;;;;;2.05;1.15;;;5.10;95.90;;;;;;5101932;28;20391;-84
2021/03/19 09:08:16;;;;;;;3.17;1.10;;;5.20;94.30;;;;;;5085562;28;20138;-83
2021/03/19 09:10:41;;;;;;;2.58;0.80;;;5.30;94.20;;;;;;5070513;28;20522;-84
2021/03/19 09:13:10;;;;;;;2.60;1.02;;;5.30;94.10;;;;;;5065697;28;20028;-83
2021/03/19 09:15:39;;;;;;;3.95;1.10;;;5.40;93.40;;;;;;5084832;28;20012;-85
2021/03/19 09:18:39;;;;;;;4.25;1.50;;;5.50;93.40;;;;;;5065832;28;20017;-85
2021/03/19 09:21:11;;;;;;;5.25;1.67;;;5.80;92.70;;;;;;5080842;28;20023;-84
2021/03/19 09:24:05;;;;;;;4.05;1.05;;;6.00;90.80;;;;;;5064792;28;20437;-83
2021/03/19 09:26:44;;;;;;;2.80;1.35;;;6.20;90.30;;;;;;5065221;28;20024;-83
2021/03/19 09:29:13;;;;;;;2.03;1.13;;;6.40;90.40;;;;;;5081825;28;20029;-85
2021/03/19 09:31:48;;;;;;;3.53;1.70;;;6.70;88.20;;;;;;5063752;28;20009;-84
2021/03/19 09:34:20;;;;;;;3.95;1.50;;;7.90;86.80;;;;;;5084416;28;20109;-85
2021/03/19 09:36:48;;;;;;;4.05;1.52;;;10.30;78.10;;;;;;5063466;28;20052;-84
2021/03/19 09:39:48;;;;;;;2.95;1.50;;;12.50;71.90;;;;;;5082418;28;20028;-84
2021/03/19 09:42:20;;;;;;;3.55;1.98;;;14.20;64.80;;;;;;5083611;28;20024;-85
2021/03/19 09:45:13;;;;;;;4.20;1.67;;;15.30;57.80;;;;;;5065229;28;20025;-84
2021/03/19 09:47:49;;;;;;;4.50;1.77;;;16.10;54.20;;;;;;5079416;28;20008;-84
2021/03/19 09:50:20;;;;;;;2.42;1.40;;;17.00;49.90;;;;;;5081903;28;20496;-85
2021/03/19 09:53:23;;;;;;;3.03;1.30;;;17.80;50.00;;;;;;5082937;28;20039;-84
2021/03/19 09:55:53;;;;;;;4.28;1.40;;;18.30;50.60;;;;;;5089182;28;20609;-85
2021/03/19 09:58:21;;;;;;;2.47;1.42;;;18.80;47.10;;;;;;5063973;28;20025;-84
2021/03/19 10:00:48;;;;;;;3.55;1.50;;;18.90;47.30;;;;;;5064335;28;20027;-87
2021/03/19 10:03:14;;;;;;;2.00;1.17;;;19.10;45.70;;;;;;5065929;28;20503;-85
2021/03/19 10:05:46;;;;;;;2.42;1.20;;;18.50;46.50;;;;;;5063083;28;20030;-85
2021/03/19 10:08:25;;;;;;;2.47;1.02;;;19.20;46.60;;;;;;5065653;28;20438;-87
2021/03/19 10:10:50;;;;;;;3.78;1.60;;;19.00;45.00;;;;;;5074356;28;20058;-86
2021/03/19 10:13:16;;;;;;;2.40;1.48;;;19.10;42.50;;;;;;5079867;28;20091;-85
2021/03/19 10:15:45;;;;;;;3.03;1.48;;;19.20;43.30;;;;;;5095670;28;20082;-86
2021/03/19 10:18:38;;;;;;;4.00;1.03;;;20.00;44.10;;;;;;5090956;28;20036;-84
2021/03/19 10:21:10;;;;;;;2.83;1.20;;;20.80;40.80;;;;;;5093049;28;20059;-85
2021/03/19 10:23:40;;;;;;;1.85;0.95;;;21.30;41.90;;;;;;5091853;28;20081;-84
2021/03/19 10:26:21;;;;;;;2.42;1.27;;;21.70;40.90;;;;;;5091820;28;20027;-84
2021/03/19 10:29:10;;;;;;;2.45;1.35;;;22.00;39.40;;;;;;5087053;28;20051;-84
2021/03/19 10:31:52;;;;;;;2.10;0.98;;;22.60;39.40;;;;;;5106053;28;20107;-86
2021/03/19 10:34:50;;;;;;;2.70;1.35;;;23.30;37.00;;;;;;5091757;28;20104;-84
2021/03/19 10:37:42;;;;;;;2.08;0.95;;;23.50;36.50;;;;;;5091591;28;20365;-84
2021/03/19 10:40:14;;;;;;;2.45;1.00;;;23.50;35.80;;;;;;5091518;28;20031;-87
2021/03/19 10:42:55;;;;;;;1.80;1.20;;;23.50;34.40;;;;;;5091524;28;20020;-85
2021/03/19 10:45:50;;;;;;;3.80;1.70;;;22.90;34.70;;;;;;5091336;28;20035;-85
2021/03/19 10:48:48;;;;;;;4.03;1.30;;;21.40;35.90;;;;;;5108431;28;20024;-85
2021/03/19 10:51:24;;;;;;;2.85;0.95;;;21.70;37.20;;;;;;5092734;28;20384;-84
2021/03/19 10:54:08;;;;;;;1.80;0.90;;;21.40;38.70;;;;;;5108523;28;20028;-86
2021/03/19 10:56:34;;;;;;;2.50;1.33;;;21.80;38.90;;;;;;5091129;28;20024;-87
2021/03/19 10:59:18;;;;;;;2.08;0.90;;;22.80;37.00;;;;;;5091426;28;20030;-84
2021/03/19 11:01:49;;;;;;;2.08;1.20;;;23.20;36.40;;;;;;5091067;28;20028;-86
2021/03/19 11:04:32;;;;;;;2.47;1.25;;;23.70;34.80;;;;;;5092627;28;20024;-86
2021/03/19 11:07:17;;;;;;;1.88;1.08;;;23.20;36.10;;;;;;5092643;28;20018;-86
2021/03/19 11:10:12;;;;;;;3.08;1.17;;;23.00;36.50;;;;;;5092553;28;20114;-85
2021/03/19 11:12:51;;;;;;;2.35;1.20;;;23.30;38.20;;;;;;5074315;28;20100;-86
2021/03/19 11:15:21;;;;;;;2.80;1.30;;;24.00;33.90;;;;;;5074539;28;20024;-85
2021/03/19 11:17:47;;;;;;;1.40;0.80;;;23.90;33.70;;;;;;5084593;28;20116;-86
2021/03/19 11:20:16;;;;;;;2.22;1.20;;;23.60;36.00;;;;;;5081729;28;20417;-86
2021/03/19 11:22:46;;;;;;;2.60;1.23;;;23.60;36.00;;;;;;5053813;28;20484;-86
2021/03/19 11:25:42;;;;;;;1.38;1.13;;;23.10;36.70;;;;;;5089043;28;20032;-84
2021/03/19 11:28:23;;;;;;;4.03;2.00;;;22.70;37.40;;;;;;5093186;28;20023;-86
2021/03/19 11:30:49;;;;;;;2.40;1.35;;;23.00;37.60;;;;;;5094646;28;20020;-84
2021/03/19 11:33:17;;;;;;;3.33;1.23;;;22.90;37.00;;;;;;5067570;28;20023;-85
2021/03/19 11:36:10;;;;;;;3.17;1.83;;;23.10;37.30;;;;;;5075906;28;20020;-85
2021/03/19 11:38:39;;;;;;;2.95;2.03;;;23.70;34.80;;;;;;5057939;28;20032;-84
2021/03/19 11:41:23;;;;;;;;;;;24.00;31.90;;;;;;5076256;28;20051;-86
2021/03/19 11:43:49;;;;;;;3.75;1.67;;;22.90;33.60;;;;;;5091442;28;19931;-84
2021/03/19 11:46:14;;;;;;;2.45;1.40;;;22.60;34.20;;;;;;5057805;28;20388;-84
2021/03/19 11:48:43;;;;;;;4.05;1.90;;;22.80;34.90;;;;;;5075551;28;20025;-84
2021/03/19 11:51:14;;;;;;;2.85;1.50;;;23.40;34.90;;;;;;5058001;28;20507;-84
2021/03/19 11:53:40;;;;;;;1.98;0.93;;;24.50;33.00;;;;;;5057521;28;20552;-85
2021/03/19 11:56:05;;;;;;;1.50;1.23;;;24.90;33.70;;;;;;5057718;28;20099;-85
2021/03/19 11:58:32;;;;;;;6.25;2.20;;;25.00;32.80;;;;;;5057663;28;20032;-85
2021/03/19 12:00:59;;;;;;;1.48;1.13;;;24.50;30.50;;;;;;5076337;28;20028;-86
2021/03/19 12:03:49;;;;;;;4.30;1.58;;;24.30;32.80;;;;;;5085215;28;20028;-87
2021/03/19 12:06:18;;;;;;;4.97;1.27;;;24.10;31.80;;;;;;5085525;28;20012;-86
2021/03/19 12:08:45;;;;;;;2.95;1.45;;;24.00;31.90;;;;;;5066787;28;20075;-86
2021/03/19 12:11:49;;;;;;;2.75;1.48;;;24.50;31.30;;;;;;5066438;28;20079;-86
2021/03/19 12:14:24;;;;;;;1.40;0.80;;;24.70;30.00;;;;;;4974126;28;20030;-84
2021/03/19 12:16:51;;;;;;;2.45;1.27;;;23.60;32.10;;;;;;4973896;28;20032;-86
2021/03/19 12:19:18;;;;;;;2.83;1.20;;;23.40;32.70;;;;;;5016581;28;20036;-84
2021/03/19 12:21:44;;;;;;;1.52;1.00;;;24.00;32.00;;;;;;5067050;28;20502;-87
2021/03/19 12:24:10;;;;;;;2.90;1.20;;;25.10;32.40;;;;;;5066523;28;20020;-83
2021/03/19 12:26:36;;;;;;;3.70;1.52;;;24.30;30.90;;;;;;5085721;28;20549;-84
2021/03/19 12:29:01;;;;;;;3.33;1.58;;;22.90;29.70;;;;;;5066082;28;20028;-82
2021/03/19 12:31:27;;;;;;;2.72;1.30;;;21.50;33.00;;;;;;5066869;28;20016;-84
2021/03/19 12:33:52;;;;;;;2.20;1.00;;;22.10;33.10;;;;;;5067415;28;20016;-84
2021/03/19 12:36:18;;;;;;;2.35;0.85;;;22.90;33.60;;;;;;5065045;28;20021;-84
2021/03/19 12:38:44;;;;;;;2.00;1.00;;;24.10;34.50;;;;;;5065588;28;20035;-84
2021/03/19 12:41:10;;;;;;;2.28;1.00;;;24.50;33.20;;;;;;5084351;28;20055;-86
2021/03/19 12:43:35;;;;;;;3.42;1.40;;;24.20;31.40;;;;;;5070958;28;20491;-86
2021/03/19 12:46:01;;;;;;;1.50;0.98;;;22.70;32.70;;;;;;5079937;23;20536;-87
2021/03/19 12:48:27;;;;;;;2.25;0.90;;;22.90;33.60;;;;;;5074437;28;20051;-89
2021/03/19 12:50:52;;;;;;;1.67;0.90;;;22.60;33.00;;;;;;5074421;28;20032;-90
2021/03/19 12:53:21;;;;;;;1.20;0.70;;;22.60;34.20;;;;;;5074765;28;20043;-88
2021/03/19 12:55:47;;;;;;;1.88;0.90;;;23.30;33.40;;;;;;5074789;28;20036;-90
2021/03/19 12:58:15;;;;;;;2.28;0.82;;;23.90;29.00;;;;;;5073996;28;20024;-89
2021/03/19 13:00:41;;;;;;;2.65;0.90;;;24.40;28.90;;;;;;5074018;28;20547;-89
2021/03/19 13:03:08;;;;;;;1.40;0.60;;;24.80;29.90;;;;;;5070543;28;21212;-90
2021/03/19 13:05:36;;;;;;;1.77;0.68;;;25.40;28.50;;;;;;5050347;28;20033;-88
2021/03/19 13:08:02;;;;;;;1.35;0.75;;;26.00;29.40;;;;;;5055017;28;20029;-88
2021/03/19 13:10:30;;;;;;;1.25;0.75;;;26.20;27.30;;;;;;5070214;28;20020;-90
2021/03/19 13:12:55;;;;;;;1.25;0.73;;;26.60;27.50;;;;;;5076922;28;20020;-91
2021/03/19 13:15:24;;;;;;;2.42;0.75;;;26.30;27.50;;;;;;5075416;28;20387;-90
2021/03/19 13:17:50;;;;;;;2.25;0.70;;;26.60;28.30;;;;;;5074898;28;20027;-90
2021/03/19 13:20:19;;;;;;;2.20;0.80;;;26.80;28.00;;;;;;5074990;28;20047;-93
2021/03/19 13:22:44;;;;;;;1.65;0.65;;;27.10;27.50;;;;;;5062474;28;20100;-88
2021/03/19 13:25:14;;;;;;;0.90;0.60;;;27.60;28.00;;;;;;5044641;28;20127;-90
2021/03/19 13:27:40;;;;;;;3.80;1.10;;;27.40;30.00;;;;;;5076411;28;20024;-92